Flight Track Log - Related Links

Times and Time Zones

All times are in EDT time to prevent confusion due to time zone crossing. See the SWA1287 flight status page for this flight to view local times or setup timezone preferences in your user account.

Time Position Orientation Groundspeed Altitude Reporting Facility
EDT Latitude Longitude Course Direction KTS MPH feet Rate Location/Type
Sun 02:11:28 PM 36.0767 -115.1814 269° West 188 216 3,200  Level Los Angeles Center
Sun 02:12:05 PM 36.0758 -115.2267 269° West 208 239 4,300 1,959 Climbing Los Angeles Center
Sun 02:13:06 PM 36.0219 -115.2764 217° Southwest 270 311 6,400 2,115 Climbing Los Angeles Center
Sun 02:14:07 PM 35.9456 -115.2933 190° South 287 330 8,600 2,066 Climbing Los Angeles Center
Sun 02:15:08 PM 35.8728 -115.2564 158° South 307 353 10,600 2,093 Climbing Los Angeles Center
Sun 02:16:16 PM 35.8378 -115.1453 111° Southeast 330 380 13,100 2,262 Climbing Los Angeles Center
Sun 02:17:18 PM 35.8236 -115.0311 99° East 340 391 15,500 1,887 Climbing Los Angeles Center
Sun 02:18:20 PM 35.8367 -114.9075 83° East 362 417 17,000 1,984 Climbing Los Angeles Center
Sun 02:19:22 PM 35.8508 -114.7533 83° East 375 432 19,600 2,032 Climbing Los Angeles Center
Sun 02:20:24 PM 35.8622 -114.6200 84° East 386 444 21,200 1,548 Climbing Los Angeles Center
Sun 02:21:26 PM 35.8744 -114.4833 84° East 397 457 22,800 1,500 Climbing Los Angeles Center
Sun 02:22:28 PM 35.8861 -114.3428 84° East 407 468 24,300 1,403 Climbing Los Angeles Center
Sun 02:23:30 PM 35.8983 -114.1986 84° East 418 481 25,700 1,403 Climbing Los Angeles Center
Sun 02:24:32 PM 35.9133 -114.0231 84° East 427 491 27,200 1,306 Climbing Los Angeles Center
Sun 02:25:34 PM 35.9214 -113.8736 86° East 433 498 28,400 1,440 Climbing Los Angeles Center
Sun 02:26:37 PM 35.8883 -113.7292 106° East 436 502 30,200 1,324 Climbing Los Angeles Center
Sun 02:27:50 PM 35.8578 -113.5825 104° East 426 490 31,400 1,147 Climbing Los Angeles Center
Sun 02:28:53 PM 35.8236 -113.4142 104° East 423 487 32,800 816 Climbing Los Angeles Center
Sun 02:29:55 PM 35.7950 -113.2756 104° East 420 483 33,100 339 Climbing Los Angeles Center
Sun 02:30:57 PM 35.7656 -113.1344 104° East 423 487 33,500 726 Climbing Los Angeles Center
Sun 02:31:59 PM 35.7353 -112.9958 105° East 421 484 34,600 774 Climbing Los Angeles Center
Sun 02:33:01 PM 35.7067 -112.8569 104° East 418 481 35,100 240 Climbing Los Angeles Center
Sun 02:34:04 PM 35.6717 -112.6908 104° East 420 483 35,100  Level Los Angeles Center
Sun 02:35:06 PM 35.6403 -112.5481 105° East 424 488 35,100  Level Los Angeles Center
Sun 02:36:08 PM 35.6100 -112.4072 105° East 426 490 35,100  Level Los Angeles Center
Sun 02:37:03 PM 35.5689 -112.2717 110° East 426 490 35,100  Level Albuquerque Center
Sun 02:37:10 PM 35.5689 -112.2717 110° East 424 488 35,100  Level Los Angeles Center
Sun 02:38:05 PM 35.5203 -112.1375 114° Southeast 431 496 35,100  Level Albuquerque Center
Sun 02:39:07 PM 35.4753 -112.0019 112° Southeast 430 495 35,100  Level Albuquerque Center
Sun 02:40:10 PM 35.4303 -111.8686 112° Southeast 427 491 35,100  Level Albuquerque Center
Sun 02:41:11 PM 35.3850 -111.7347 112° Southeast 427 491 35,100  Level Albuquerque Center
Sun 02:42:13 PM 35.3403 -111.6017 112° Southeast 426 490 35,100  Level Albuquerque Center
Sun 02:43:15 PM 35.2839 -111.4411 113° Southeast 427 491 35,100  Level Albuquerque Center
Sun 02:44:17 PM 35.2386 -111.3075 113° Southeast 427 491 35,100  Level Albuquerque Center
Sun 02:45:19 PM 35.1928 -111.1736 113° Southeast 425 489 35,100  Level Albuquerque Center
Sun 02:46:21 PM 35.1519 -111.0294 109° East 429 494 35,100  Level Albuquerque Center
Sun 02:47:23 PM 35.1478 -110.8694 92° East 421 484 35,100  Level Albuquerque Center
Sun 02:48:25 PM 35.1447 -110.7322 92° East 422 486 35,100  Level Albuquerque Center
Sun 02:49:27 PM 35.1444 -110.5739 90° East 420 483 35,100  Level Albuquerque Center
Sun 02:50:29 PM 35.1428 -110.4364 91° East 421 484 35,100  Level Albuquerque Center
Sun 02:51:31 PM 35.1411 -110.2997 91° East 421 484 35,100  Level Albuquerque Center
Sun 02:52:33 PM 35.1400 -110.1422 90° East 419 482 35,100  Level Albuquerque Center
Sun 02:53:35 PM 35.1386 -110.0053 91° East 420 483 35,100  Level Albuquerque Center
Sun 02:54:37 PM 35.1364 -109.8461 91° East 421 484 35,100  Level Albuquerque Center
Sun 02:55:39 PM 35.1322 -109.7058 92° East 427 491 35,100  Level Albuquerque Center
Sun 02:56:41 PM 35.1297 -109.5475 91° East 424 488 35,100  Level Albuquerque Center
Sun 02:57:43 PM 35.1269 -109.4097 91° East 423 487 35,100  Level Albuquerque Center
Sun 02:58:45 PM 35.1242 -109.2511 91° East 421 484 35,100  Level Albuquerque Center
Sun 02:59:48 PM 35.1203 -109.1139 92° East 422 486 35,100  Level Albuquerque Center
Sun 03:00:50 PM 35.1167 -108.9550 92° East 421 484 35,100  Level Albuquerque Center
Sun 03:01:52 PM 35.1136 -108.8175 92° East 423 487 35,100  Level Albuquerque Center
Sun 03:02:54 PM 35.1100 -108.6581 92° East 423 487 35,100  Level Albuquerque Center
Sun 03:03:56 PM 35.1061 -108.5211 92° East 422 486 35,100  Level Albuquerque Center
Sun 03:04:58 PM 35.1011 -108.3614 92° East 423 487 35,100  Level Albuquerque Center
Sun 03:06:00 PM 35.0964 -108.2250 92° East 422 486 35,100  Level Albuquerque Center
Sun 03:07:02 PM 35.0936 -108.0650 91° East 422 486 35,100  Level Albuquerque Center
Sun 03:08:04 PM 35.0881 -107.9281 93° East 423 487 35,100  Level Albuquerque Center
Sun 03:09:06 PM 35.0822 -107.7897 93° East 421 484 35,100  Level Albuquerque Center
Sun 03:10:08 PM 35.0775 -107.6475 92° East 421 484 35,100  Level Albuquerque Center
Sun 03:11:10 PM 35.0708 -107.4758 93° East 422 486 35,100 -48 Level Albuquerque Center
Sun 03:12:12 PM 35.0647 -107.3342 93° East 420 483 35,000  Descending Albuquerque Center
Sun 03:13:14 PM 35.0592 -107.1794 92° East 420 483 35,100 48 Climbing Albuquerque Center
Sun 03:14:16 PM 35.0569 -107.0433 91° East 419 482 35,100  Level Albuquerque Center
Sun 03:15:18 PM 35.0692 -106.8869 85° East 413 475 35,100  Level Albuquerque Center
Sun 03:16:20 PM 35.0775 -106.7547 86° East 410 472 35,100  Level Albuquerque Center
Sun 03:17:22 PM 35.0864 -106.6200 85° East 413 475 35,100  Level Albuquerque Center
Sun 03:18:24 PM 35.0969 -106.4700 85° East 429 494 35,100  Level Albuquerque Center
Sun 03:19:26 PM 35.1056 -106.3303 86° East 420 483 35,100  Level Albuquerque Center
Sun 03:20:28 PM 35.1169 -106.1594 85° East 414 476 35,100  Level Albuquerque Center
Sun 03:21:30 PM 35.1256 -106.0169 86° East 418 481 35,100  Level Albuquerque Center
Sun 03:22:32 PM 35.1347 -105.8733 85° East 420 483 35,100  Level Albuquerque Center
Sun 03:23:34 PM 35.1436 -105.7300 86° East 421 484 35,100 -48 Level Albuquerque Center
Sun 03:24:36 PM 35.1519 -105.5872 86° East 419 482 35,000  Descending Albuquerque Center
Sun 03:25:38 PM 35.1606 -105.4439 86° East 420 483 35,100 48 Climbing Albuquerque Center
Sun 03:26:40 PM 35.1686 -105.3011 86° East 419 482 35,100  Level Albuquerque Center
Sun 03:27:42 PM 35.1775 -105.1333 86° East 421 484 35,100  Level Albuquerque Center
Sun 03:28:44 PM 35.1864 -104.9903 86° East 420 483 35,100  Level Albuquerque Center
Sun 03:29:46 PM 35.1931 -104.8481 87° East 416 479 35,100  Level Albuquerque Center
Sun 03:30:48 PM 35.2003 -104.7050 86° East 418 481 35,100  Level Albuquerque Center
Sun 03:31:50 PM 35.2089 -104.5578 86° East 419 482 35,100  Level Albuquerque Center
Sun 03:32:52 PM 35.2172 -104.4153 86° East 421 484 35,100  Level Albuquerque Center
Sun 03:33:54 PM 35.2233 -104.2728 87° East 421 484 35,100  Level Albuquerque Center
Sun 03:34:56 PM 35.2294 -104.1306 87° East 421 484 35,100  Level Albuquerque Center
Sun 03:35:58 PM 35.2378 -103.9600 87° East 421 484 35,100  Level Albuquerque Center
Sun 03:37:00 PM 35.2436 -103.8311 87° East 419 482 35,100  Level Albuquerque Center
Sun 03:38:02 PM 35.2497 -103.6872 87° East 421 484 35,100  Level Albuquerque Center
Sun 03:39:04 PM 35.2569 -103.5189 87° East 420 483 35,100  Level Albuquerque Center
Sun 03:40:06 PM 35.2628 -103.3756 87° East 419 482 35,100  Level Albuquerque Center
Sun 03:41:09 PM 35.2681 -103.2314 87° East 420 483 35,100  Level Albuquerque Center
Sun 03:42:11 PM 35.2742 -103.0869 87° East 421 484 35,100  Level Albuquerque Center
Sun 03:43:13 PM 35.2789 -102.9339 88° East 420 483 35,100  Level Albuquerque Center
Sun 03:44:15 PM 35.2842 -102.7897 87° East 423 487 35,100  Level Albuquerque Center
Sun 03:45:17 PM 35.2892 -102.6531 87° East 423 487 35,100 -48 Level Albuquerque Center
Sun 03:46:19 PM 35.2925 -102.5025 88° East 423 487 35,000  Descending Albuquerque Center
Sun 03:47:21 PM 35.2972 -102.3592 88° East 423 487 35,100 48 Climbing Albuquerque Center
Sun 03:48:23 PM 35.3036 -102.1878 87° East 421 484 35,100  Level Albuquerque Center
Sun 03:49:25 PM 35.3083 -102.0442 88° East 423 487 35,100  Level Albuquerque Center
Sun 03:50:27 PM 35.3139 -101.9044 87° East 423 487 35,100  Level Albuquerque Center
Sun 03:51:29 PM 35.3214 -101.7606 86° East 421 484 35,100 -48 Level Albuquerque Center
Sun 03:52:31 PM 35.3233 -101.6222 89° East 422 486 35,000  Descending Albuquerque Center
Sun 03:53:33 PM 35.3286 -101.4508 88° East 420 483 35,100 48 Climbing Albuquerque Center
Sun 03:54:35 PM 35.3289 -101.3169 90° East 421 484 35,100  Level Albuquerque Center
Sun 03:55:37 PM 35.3325 -101.1733 88° East 423 487 35,100  Level Albuquerque Center
Sun 03:56:39 PM 35.3358 -101.0303 88° East 420 483 35,100  Level Albuquerque Center
Sun 03:58:31 PM 35.3386 -100.7522 89° East 430 495 35,100 -35 Level Fort Worth Center
Sun 03:59:30 PM 35.3403 -100.6100 89° East 430 495 35,000 -81 Descending Fort Worth Center
Sun 03:59:45 PM 35.3453 -100.5883 74° East 423 487 35,000  Level Albuquerque Center
Sun 04:00:47 PM 35.3461 -100.4169 90° East 421 484 35,000 48 Level Albuquerque Center
Sun 04:01:49 PM 35.3494 -100.2747 88° East 419 482 35,100  Climbing Albuquerque Center
Sun 04:02:51 PM 35.3511 -100.1317 89° East 420 483 35,000 -48 Descending Albuquerque Center
Sun 04:03:53 PM 35.3525 -99.9894 89° East 419 482 35,000 48 Level Albuquerque Center
Sun 04:04:55 PM 35.3550 -99.8464 89° East 421 484 35,100  Climbing Albuquerque Center
Sun 04:05:57 PM 35.3556 -99.7028 90° East 423 487 35,000 -919 Descending Albuquerque Center
Sun 04:06:59 PM 35.3569 -99.5339 89° East 416 479 33,200 -2,129 Descending Albuquerque Center
Sun 04:08:01 PM 35.3592 -99.3936 89° East 414 476 30,600 -2,308 Descending Albuquerque Center
Sun 04:08:30 PM 35.3581 -99.3378 91° East 415 478 29,700 -2,090 Descending Fort Worth Center
Sun 04:09:30 PM 35.3578 -99.2031 90° East 402 463 27,500 -2,132 Descending Fort Worth Center
Sun 04:10:31 PM 35.3597 -99.0758 89° East 386 444 25,400 -2,100 Descending Fort Worth Center
Sun 04:11:30 PM 35.3614 -98.9486 89° East 376 433 23,300 -2,067 Descending Fort Worth Center
Sun 04:12:30 PM 35.3606 -98.8264 90° East 365 420 21,300 -1,983 Descending Fort Worth Center
Sun 04:13:31 PM 35.3619 -98.7067 89° East 360 414 19,300 -2,000 Descending Fort Worth Center
Sun 04:14:30 PM 35.3611 -98.5869 90° East 350 403 17,300 -2,017 Descending Fort Worth Center
Sun 04:15:30 PM 35.3619 -98.4750 89° East 344 396 15,300 -2,074 Descending Fort Worth Center
Sun 04:15:51 PM 35.3583 -98.4292 96° East 338 389 14,500 -2,192 Descending Fort Worth Center
Sun 04:16:22 PM 35.3586 -98.3681 90° East 334 384 13,400 -1,957 Descending Fort Worth Center
Sun 04:17:23 PM 35.3594 -98.2586 89° East 325 374 11,500 -1,636 Descending Fort Worth Center
Sun 04:18:23 PM 35.3686 -98.1492 84° East 316 364 10,100 -1,388 Descending Fort Worth Center
Sun 04:19:24 PM 35.3900 -98.0503 75° East 302 348 8,700 -1,672 Descending Fort Worth Center
Sun 04:20:25 PM 35.4092 -97.9458 77° East 294 338 6,700 -1,869 Descending Fort Worth Center
Sun 04:21:26 PM 35.4306 -97.8467 75° East 295 339 4,900 -1,190 Descending Fort Worth Center
Sun 04:22:31 PM 35.4494 -97.7550 76° East 290 334 4,200 -645 Descending Fort Worth Center
Sun 04:23:27 PM 35.4581 -97.6786 82° East 168 193 3,600 -1,077 Descending Fort Worth Center
Sun 04:24:28 PM 35.4269 -97.6453 139° Southeast 138 159 2,100 -1,065 Descending Fort Worth Center
Sun 04:25:31 PM 35.4061 -97.6019 121° Southeast 152 175 1,400 4,377 Descending Fort Worth Center
Sun 04:26:30 PM 35.3853 -97.5561 119° Southeast 152 175 11,000 4,840 Climbing Fort Worth Center
Sun 04:27:30 PM 35.3644 -97.5128 121° Southeast 152 175 11,000  Level Fort Worth Center
Sun 04:28:31 PM 35.3436 -97.4669 119° Southeast 152 175 11,000  Level Fort Worth Center
Sun 04:29:30 PM 35.3269 -97.4314 120° Southeast 152 175 11,000  Level Fort Worth Center

Login

Don't have an account? Register now (free) for customized features, flight alerts, and more!